OAL117 LOWI-LGIO
Flight info
| Callsign | OAL117 |
|---|---|
| Flight time | 1h 35m |
| Altitude | 37000 |
| Route | BRENO DCT KEBBU DCT OKLAX DCT VAKSU DCT DIMIS |
| Aircraft | A320/M-SDE3FGHIRWY/LB1 |
Departure
| Time | 2026-04-25 12:55 |
|---|---|
| Airport | Innsbruck Airport (LOWI) |
Arrival
| Time | 2026-04-25 14:31 |
|---|---|
| Airport | Ioannina King Pyrrhus National Airport (LGIO) |
| Time | Latitude | Longitude | Altitude | Speed | Heading |
|---|---|---|---|---|---|
| 2026-04-25 12:48 | 47.25849 | 11.34786 | 1887 ft | 0 kts | 261° |
| 2026-04-25 12:49 | 47.25849 | 11.34782 | 1888 ft | 2 kts | 261° |
| 2026-04-25 12:49 | 47.25845 | 11.34750 | 1896 ft | 4 kts | 261° |
| 2026-04-25 12:50 | 47.25837 | 11.34700 | 1896 ft | 6 kts | 253° |
| 2026-04-25 12:50 | 47.25824 | 11.34633 | 1899 ft | 8 kts | 255° |
| 2026-04-25 12:50 | 47.25815 | 11.34547 | 1899 ft | 9 kts | 264° |
| 2026-04-25 12:50 | 47.25808 | 11.34442 | 1889 ft | 11 kts | 265° |
| 2026-04-25 12:51 | 47.25798 | 11.34318 | 1899 ft | 13 kts | 259° |
| 2026-04-25 12:51 | 47.25781 | 11.34175 | 1895 ft | 15 kts | 264° |
| 2026-04-25 12:51 | 47.25803 | 11.34025 | 1889 ft | 15 kts | 307° |
| 2026-04-25 12:51 | 47.25812 | 11.34007 | 1899 ft | 0 kts | 307° |
| 2026-04-25 12:54 | 47.25816 | 11.33933 | 1899 ft | 25 kts | 274° |
| 2026-04-25 12:54 | 47.25867 | 11.33742 | 1899 ft | 15 kts | 304° |
| 2026-04-25 12:54 | 47.25892 | 11.33707 | 1904 ft | 0 kts | 327° |
| 2026-04-25 12:54 | 47.25934 | 11.33715 | 1906 ft | 18 kts | 26° |
| 2026-04-25 12:55 | 47.25979 | 11.34055 | 1905 ft | 75 kts | 82° |
| 2026-04-25 12:55 | 47.26062 | 11.34748 | 1903 ft | 130 kts | 82° |
| 2026-04-25 12:55 | 47.26307 | 11.37029 | 2169 ft | 192 kts | 84° |
| 2026-04-25 12:55 | 47.26274 | 11.39061 | 3054 ft | 204 kts | 99° |
| 2026-04-25 12:56 | 47.25865 | 11.41116 | 4123 ft | 212 kts | 107° |
| 2026-04-25 12:56 | 47.25435 | 11.43172 | 5359 ft | 213 kts | 100° |
| 2026-04-25 12:56 | 47.25266 | 11.45339 | 6487 ft | 212 kts | 87° |
| 2026-04-25 12:56 | 47.25355 | 11.47653 | 6813 ft | 257 kts | 91° |
| 2026-04-25 12:57 | 47.25275 | 11.50467 | 7325 ft | 282 kts | 82° |
| 2026-04-25 12:57 | 47.26002 | 11.53019 | 8782 ft | 264 kts | 46° |
| 2026-04-25 12:57 | 47.27235 | 11.54870 | 10423 ft | 244 kts | 42° |
| 2026-04-25 12:57 | 47.28430 | 11.56611 | 11570 ft | 241 kts | 42° |
| 2026-04-25 12:58 | 47.29626 | 11.58366 | 12524 ft | 247 kts | 45° |
| 2026-04-25 12:58 | 47.30540 | 11.60653 | 12961 ft | 277 kts | 75° |
| 2026-04-25 12:58 | 47.30503 | 11.63584 | 13430 ft | 302 kts | 109° |
| 2026-04-25 12:58 | 47.29362 | 11.66274 | 13889 ft | 323 kts | 140° |
| 2026-04-25 12:59 | 47.27355 | 11.67905 | 14335 ft | 343 kts | 168° |
| 2026-04-25 12:59 | 47.25760 | 11.68157 | 14614 ft | 355 kts | 186° |
| 2026-04-25 12:59 | 47.22652 | 11.66439 | 15472 ft | 366 kts | 218° |
| 2026-04-25 12:59 | 47.20738 | 11.63956 | 16456 ft | 369 kts | 227° |
| 2026-04-25 13:00 | 47.19555 | 11.62152 | 17123 ft | 372 kts | 228° |
| 2026-04-25 13:00 | 47.18344 | 11.60293 | 17817 ft | 374 kts | 228° |
| 2026-04-25 13:00 | 47.15931 | 11.56637 | 19092 ft | 379 kts | 225° |
| 2026-04-25 13:00 | 47.13924 | 11.54085 | 19965 ft | 384 kts | 220° |
| 2026-04-25 13:01 | 47.11765 | 11.51721 | 20810 ft | 390 kts | 217° |
| 2026-04-25 13:01 | 47.09515 | 11.49451 | 21643 ft | 394 kts | 216° |
| 2026-04-25 13:01 | 47.07222 | 11.47201 | 22474 ft | 399 kts | 216° |
| 2026-04-25 13:01 | 47.04909 | 11.44919 | 23252 ft | 403 kts | 214° |
| 2026-04-25 13:02 | 47.02372 | 11.43109 | 23918 ft | 411 kts | 199° |
| 2026-04-25 13:02 | 46.99531 | 11.42409 | 24535 ft | 419 kts | 183° |
| 2026-04-25 13:02 | 46.96621 | 11.42987 | 25133 ft | 428 kts | 166° |
| 2026-04-25 13:02 | 46.93920 | 11.44894 | 25687 ft | 438 kts | 147° |
| 2026-04-25 13:03 | 46.91681 | 11.47967 | 26176 ft | 446 kts | 135° |
| 2026-04-25 13:03 | 46.89612 | 11.51370 | 26641 ft | 449 kts | 134° |
| 2026-04-25 13:03 | 46.87540 | 11.54805 | 27082 ft | 452 kts | 134° |
| 2026-04-25 13:03 | 46.85451 | 11.58271 | 27505 ft | 455 kts | 134° |
| 2026-04-25 13:04 | 46.83355 | 11.61735 | 27895 ft | 458 kts | 135° |
| 2026-04-25 13:04 | 46.81232 | 11.65221 | 28253 ft | 460 kts | 135° |
| 2026-04-25 13:04 | 46.79094 | 11.68710 | 28576 ft | 463 kts | 135° |
| 2026-04-25 13:04 | 46.76936 | 11.72221 | 28924 ft | 465 kts | 135° |
| 2026-04-25 13:05 | 46.74785 | 11.75721 | 29411 ft | 464 kts | 135° |
| 2026-04-25 13:05 | 46.72629 | 11.79234 | 29908 ft | 464 kts | 135° |
| 2026-04-25 13:05 | 46.70484 | 11.82726 | 30363 ft | 463 kts | 135° |
| 2026-04-25 13:05 | 46.68335 | 11.86212 | 30761 ft | 462 kts | 135° |
| 2026-04-25 13:06 | 46.66184 | 11.89689 | 31143 ft | 461 kts | 135° |
| 2026-04-25 13:06 | 46.64035 | 11.93156 | 31508 ft | 461 kts | 135° |
| 2026-04-25 13:06 | 46.61889 | 11.96615 | 31882 ft | 461 kts | 135° |
| 2026-04-25 13:06 | 46.59737 | 12.00077 | 32267 ft | 461 kts | 136° |
| 2026-04-25 13:07 | 46.57588 | 12.03535 | 32642 ft | 461 kts | 136° |
| 2026-04-25 13:07 | 46.55443 | 12.06993 | 33008 ft | 460 kts | 135° |
| 2026-04-25 13:07 | 46.53307 | 12.10444 | 33310 ft | 459 kts | 136° |
| 2026-04-25 13:07 | 46.51168 | 12.13893 | 33645 ft | 459 kts | 136° |
| 2026-04-25 13:08 | 46.49030 | 12.17326 | 34017 ft | 459 kts | 136° |
| 2026-04-25 13:08 | 46.46881 | 12.20768 | 34353 ft | 459 kts | 136° |
| 2026-04-25 13:08 | 46.44743 | 12.24186 | 34720 ft | 458 kts | 136° |
| 2026-04-25 13:08 | 46.42605 | 12.27604 | 35065 ft | 458 kts | 136° |
| 2026-04-25 13:09 | 46.40466 | 12.31022 | 35375 ft | 457 kts | 136° |
| 2026-04-25 13:09 | 46.38358 | 12.34379 | 35679 ft | 457 kts | 136° |
| 2026-04-25 13:09 | 46.36217 | 12.37783 | 35982 ft | 457 kts | 136° |
| 2026-04-25 13:09 | 46.34080 | 12.41172 | 36319 ft | 456 kts | 136° |
| 2026-04-25 13:10 | 46.31943 | 12.44561 | 36637 ft | 456 kts | 136° |
| 2026-04-25 13:10 | 46.29805 | 12.47948 | 36945 ft | 456 kts | 136° |
| 2026-04-25 13:10 | 46.25483 | 12.54787 | 37040 ft | 466 kts | 136° |
| 2026-04-25 13:11 | 46.21057 | 12.61770 | 37046 ft | 477 kts | 136° |
| 2026-04-25 13:11 | 46.16536 | 12.68891 | 37041 ft | 485 kts | 136° |
| 2026-04-25 13:12 | 46.11954 | 12.76088 | 37042 ft | 490 kts | 136° |
| 2026-04-25 13:12 | 46.08066 | 12.82175 | 37037 ft | 494 kts | 136° |
| 2026-04-25 13:13 | 46.02650 | 12.90636 | 37478 ft | 489 kts | 136° |
| 2026-04-25 13:13 | 46.00359 | 12.94219 | 37889 ft | 483 kts | 136° |
| 2026-04-25 13:13 | 45.98106 | 12.97746 | 38309 ft | 477 kts | 136° |
| 2026-04-25 13:14 | 45.95878 | 13.01240 | 38721 ft | 471 kts | 136° |
| 2026-04-25 13:14 | 45.93675 | 13.04695 | 39072 ft | 466 kts | 135° |
| 2026-04-25 13:14 | 45.91502 | 13.08107 | 39431 ft | 460 kts | 135° |
| 2026-04-25 13:14 | 45.89360 | 13.11475 | 39815 ft | 455 kts | 135° |
| 2026-04-25 13:15 | 45.87237 | 13.14813 | 40203 ft | 448 kts | 135° |
| 2026-04-25 13:15 | 45.85152 | 13.18097 | 40604 ft | 442 kts | 135° |
| 2026-04-25 13:15 | 45.83102 | 13.21329 | 41033 ft | 434 kts | 135° |
| 2026-04-25 13:15 | 45.81094 | 13.24499 | 41443 ft | 426 kts | 135° |
| 2026-04-25 13:16 | 45.79127 | 13.27608 | 41850 ft | 416 kts | 134° |
| 2026-04-25 13:16 | 45.77208 | 13.30646 | 42259 ft | 406 kts | 134° |
| 2026-04-25 13:16 | 45.75343 | 13.33603 | 42619 ft | 395 kts | 134° |
| 2026-04-25 13:16 | 45.73485 | 13.36551 | 42671 ft | 394 kts | 134° |
| 2026-04-25 13:17 | 45.71656 | 13.39450 | 42329 ft | 402 kts | 134° |
| 2026-04-25 13:17 | 45.69760 | 13.42448 | 42005 ft | 409 kts | 134° |
| 2026-04-25 13:17 | 45.65981 | 13.48420 | 42387 ft | 396 kts | 134° |
| 2026-04-25 13:18 | 45.64145 | 13.51328 | 42514 ft | 392 kts | 134° |
| 2026-04-25 13:18 | 45.62304 | 13.54239 | 42269 ft | 398 kts | 134° |
| 2026-04-25 13:18 | 45.60426 | 13.57203 | 41952 ft | 406 kts | 134° |
| 2026-04-25 13:18 | 45.58530 | 13.60193 | 41913 ft | 405 kts | 134° |
| 2026-04-25 13:19 | 45.56656 | 13.63149 | 42169 ft | 397 kts | 134° |
| 2026-04-25 13:19 | 45.54818 | 13.66050 | 42351 ft | 392 kts | 134° |
| 2026-04-25 13:19 | 45.52986 | 13.68941 | 42207 ft | 396 kts | 134° |
| 2026-04-25 13:19 | 45.51731 | 13.70921 | 42000 ft | 401 kts | 134° |
| 2026-04-25 13:20 | 45.49234 | 13.74849 | 41818 ft | 404 kts | 134° |
| 2026-04-25 13:20 | 45.47361 | 13.77797 | 42019 ft | 398 kts | 134° |
| 2026-04-25 13:20 | 45.45517 | 13.80702 | 42209 ft | 392 kts | 134° |
| 2026-04-25 13:20 | 45.43687 | 13.83585 | 42142 ft | 394 kts | 134° |
| 2026-04-25 13:21 | 45.41834 | 13.86500 | 41891 ft | 400 kts | 134° |
| 2026-04-25 13:21 | 45.39956 | 13.89449 | 41775 ft | 402 kts | 134° |
| 2026-04-25 13:21 | 45.38086 | 13.92387 | 41913 ft | 397 kts | 134° |
| 2026-04-25 13:21 | 45.36246 | 13.95280 | 42086 ft | 392 kts | 134° |
| 2026-04-25 13:22 | 45.32574 | 14.01052 | 41854 ft | 398 kts | 134° |
| 2026-04-25 13:22 | 45.30706 | 14.03983 | 41737 ft | 400 kts | 134° |
| 2026-04-25 13:23 | 45.27005 | 14.09793 | 42007 ft | 392 kts | 134° |
| 2026-04-25 13:23 | 45.23342 | 14.15543 | 41839 ft | 396 kts | 134° |
| 2026-04-25 13:23 | 45.21521 | 14.18396 | 41723 ft | 399 kts | 134° |
| 2026-04-25 13:24 | 45.19663 | 14.21307 | 41788 ft | 396 kts | 134° |
| 2026-04-25 13:24 | 45.17822 | 14.24189 | 41890 ft | 395 kts | 134° |
| 2026-04-25 13:24 | 45.15859 | 14.27112 | 40777 ft | 424 kts | 139° |
| 2026-04-25 13:24 | 45.13560 | 14.29950 | 39487 ft | 455 kts | 144° |
| 2026-04-25 13:25 | 45.10815 | 14.32587 | 38066 ft | 491 kts | 151° |
| 2026-04-25 13:25 | 45.07938 | 14.35101 | 38656 ft | 480 kts | 151° |
| 2026-04-25 13:25 | 45.05118 | 14.37568 | 38911 ft | 476 kts | 151° |
| 2026-04-25 13:26 | 44.99471 | 14.42506 | 38995 ft | 478 kts | 149° |
| 2026-04-25 13:26 | 44.93933 | 14.47724 | 39138 ft | 478 kts | 148° |
| 2026-04-25 13:27 | 44.88446 | 14.53160 | 38993 ft | 484 kts | 142° |
| 2026-04-25 13:27 | 44.85879 | 14.56191 | 39220 ft | 481 kts | 140° |
| 2026-04-25 13:27 | 44.83394 | 14.59327 | 39347 ft | 479 kts | 140° |
| 2026-04-25 13:28 | 44.78413 | 14.65604 | 39405 ft | 481 kts | 140° |
| 2026-04-25 13:28 | 44.73398 | 14.71923 | 39422 ft | 481 kts | 140° |
| 2026-04-25 13:28 | 44.70911 | 14.75057 | 39602 ft | 479 kts | 140° |
| 2026-04-25 13:29 | 44.68430 | 14.78182 | 39637 ft | 479 kts | 140° |
| 2026-04-25 13:29 | 44.63458 | 14.84440 | 39737 ft | 480 kts | 140° |
| 2026-04-25 13:30 | 44.58491 | 14.90683 | 39899 ft | 479 kts | 140° |
| 2026-04-25 13:30 | 44.56009 | 14.93800 | 39962 ft | 479 kts | 140° |
| 2026-04-25 13:31 | 44.49654 | 15.04063 | 39021 ft | 464 kts | 116° |
| 2026-04-25 13:31 | 44.48276 | 15.08137 | 38567 ft | 461 kts | 116° |
| 2026-04-25 13:31 | 44.46906 | 15.12190 | 38057 ft | 459 kts | 116° |
| 2026-04-25 13:31 | 44.45515 | 15.16206 | 37547 ft | 458 kts | 121° |
| 2026-04-25 13:32 | 44.43677 | 15.19809 | 37113 ft | 453 kts | 134° |
| 2026-04-25 13:32 | 44.39391 | 15.26271 | 37051 ft | 455 kts | 134° |
| 2026-04-25 13:33 | 44.35063 | 15.32757 | 37055 ft | 456 kts | 134° |
| 2026-04-25 13:33 | 44.30735 | 15.39230 | 37056 ft | 456 kts | 134° |
| 2026-04-25 13:34 | 44.26405 | 15.45693 | 37055 ft | 455 kts | 134° |
| 2026-04-25 13:34 | 44.22080 | 15.52141 | 37056 ft | 456 kts | 134° |
| 2026-04-25 13:35 | 44.17745 | 15.58593 | 37060 ft | 456 kts | 134° |
| 2026-04-25 13:35 | 44.13409 | 15.65036 | 37068 ft | 456 kts | 134° |
| 2026-04-25 13:36 | 44.09064 | 15.71476 | 37067 ft | 456 kts | 134° |
| 2026-04-25 13:36 | 44.04721 | 15.77897 | 37061 ft | 456 kts | 134° |
| 2026-04-25 13:37 | 44.00369 | 15.84319 | 37062 ft | 456 kts | 134° |
| 2026-04-25 13:37 | 43.96009 | 15.90723 | 37059 ft | 456 kts | 134° |
| 2026-04-25 13:38 | 43.91647 | 15.97105 | 37062 ft | 456 kts | 134° |
| 2026-04-25 13:38 | 43.87278 | 16.03492 | 37060 ft | 456 kts | 134° |
| 2026-04-25 13:39 | 43.83595 | 16.08799 | 37061 ft | 456 kts | 135° |
| 2026-04-25 13:39 | 43.79129 | 16.15024 | 37058 ft | 456 kts | 136° |
| 2026-04-25 13:40 | 43.74636 | 16.21218 | 37055 ft | 456 kts | 136° |
| 2026-04-25 13:40 | 43.70150 | 16.27438 | 37051 ft | 456 kts | 135° |
| 2026-04-25 13:41 | 43.65680 | 16.33661 | 37045 ft | 456 kts | 135° |
| 2026-04-25 13:41 | 43.61194 | 16.39877 | 37045 ft | 456 kts | 135° |
| 2026-04-25 13:42 | 43.56737 | 16.46033 | 37045 ft | 457 kts | 135° |
| 2026-04-25 13:42 | 43.52249 | 16.52228 | 37049 ft | 457 kts | 135° |
| 2026-04-25 13:43 | 43.47760 | 16.58414 | 37089 ft | 456 kts | 135° |
| 2026-04-25 13:43 | 43.43269 | 16.64577 | 37098 ft | 456 kts | 135° |
| 2026-04-25 13:44 | 43.38754 | 16.70762 | 37103 ft | 455 kts | 135° |
| 2026-04-25 13:44 | 43.34295 | 16.76859 | 37105 ft | 455 kts | 135° |
| 2026-04-25 13:45 | 43.29781 | 16.83028 | 37105 ft | 455 kts | 135° |
| 2026-04-25 13:45 | 43.25325 | 16.89097 | 37093 ft | 454 kts | 135° |
| 2026-04-25 13:46 | 43.20834 | 16.95194 | 37088 ft | 454 kts | 135° |
| 2026-04-25 13:46 | 43.16344 | 17.01275 | 37077 ft | 454 kts | 135° |
| 2026-04-25 13:47 | 43.11852 | 17.07347 | 37075 ft | 454 kts | 135° |
| 2026-04-25 13:47 | 43.07361 | 17.13409 | 37067 ft | 454 kts | 135° |
| 2026-04-25 13:48 | 43.02836 | 17.19504 | 37065 ft | 454 kts | 135° |
| 2026-04-25 13:48 | 42.98369 | 17.25517 | 37064 ft | 454 kts | 135° |
| 2026-04-25 13:49 | 42.93862 | 17.31547 | 37067 ft | 453 kts | 135° |
| 2026-04-25 13:49 | 42.89363 | 17.37562 | 37065 ft | 452 kts | 135° |
| 2026-04-25 13:50 | 42.84842 | 17.43611 | 37066 ft | 452 kts | 135° |
| 2026-04-25 13:50 | 42.80350 | 17.49599 | 37067 ft | 452 kts | 135° |
| 2026-04-25 13:51 | 42.75880 | 17.55532 | 37068 ft | 452 kts | 135° |
| 2026-04-25 13:51 | 42.71384 | 17.61494 | 37067 ft | 451 kts | 135° |
| 2026-04-25 13:52 | 42.66890 | 17.67443 | 37066 ft | 451 kts | 135° |
| 2026-04-25 13:52 | 42.62391 | 17.73382 | 37064 ft | 451 kts | 135° |
| 2026-04-25 13:53 | 42.57896 | 17.79314 | 37070 ft | 451 kts | 135° |
| 2026-04-25 13:53 | 42.53396 | 17.85234 | 37068 ft | 450 kts | 135° |
| 2026-04-25 13:54 | 42.48867 | 17.91176 | 37064 ft | 450 kts | 135° |
| 2026-04-25 13:54 | 42.44395 | 17.97031 | 37061 ft | 450 kts | 135° |
| 2026-04-25 13:55 | 42.39883 | 18.02911 | 37064 ft | 450 kts | 135° |
| 2026-04-25 13:55 | 42.35382 | 18.08793 | 37061 ft | 450 kts | 135° |
| 2026-04-25 13:56 | 42.30876 | 18.14664 | 37065 ft | 450 kts | 135° |
| 2026-04-25 13:56 | 42.26367 | 18.20527 | 37066 ft | 450 kts | 135° |
| 2026-04-25 13:57 | 42.21854 | 18.26369 | 37066 ft | 449 kts | 135° |
| 2026-04-25 13:57 | 42.17368 | 18.32156 | 37070 ft | 449 kts | 135° |
| 2026-04-25 13:58 | 42.12854 | 18.37978 | 37066 ft | 449 kts | 134° |
| 2026-04-25 13:58 | 42.08343 | 18.43794 | 37067 ft | 449 kts | 134° |
| 2026-04-25 13:59 | 42.03830 | 18.49599 | 37066 ft | 449 kts | 134° |
| 2026-04-25 13:59 | 41.99250 | 18.55297 | 37067 ft | 449 kts | 137° |
| 2026-04-25 14:00 | 41.96040 | 18.58900 | 37064 ft | 449 kts | 139° |
| 2026-04-25 14:00 | 41.89531 | 18.65848 | 37066 ft | 449 kts | 139° |
| 2026-04-25 14:01 | 41.84672 | 18.71118 | 37065 ft | 449 kts | 139° |
| 2026-04-25 14:01 | 41.79863 | 18.76431 | 37062 ft | 448 kts | 138° |
| 2026-04-25 14:02 | 41.75045 | 18.81744 | 37065 ft | 448 kts | 138° |
| 2026-04-25 14:02 | 41.70219 | 18.87025 | 37058 ft | 448 kts | 139° |
| 2026-04-25 14:03 | 41.65393 | 18.92291 | 37057 ft | 448 kts | 138° |
| 2026-04-25 14:03 | 41.60566 | 18.97555 | 37055 ft | 448 kts | 138° |
| 2026-04-25 14:04 | 41.55738 | 19.02808 | 37061 ft | 447 kts | 138° |
| 2026-04-25 14:04 | 41.50911 | 19.08047 | 37052 ft | 447 kts | 138° |
| 2026-04-25 14:05 | 41.46098 | 19.13275 | 37058 ft | 447 kts | 138° |
| 2026-04-25 14:05 | 41.41451 | 19.18310 | 37054 ft | 447 kts | 138° |
| 2026-04-25 14:06 | 41.36623 | 19.23513 | 37056 ft | 447 kts | 138° |
| 2026-04-25 14:06 | 41.31804 | 19.28698 | 37051 ft | 447 kts | 138° |
| 2026-04-25 14:07 | 41.26955 | 19.33904 | 37045 ft | 447 kts | 138° |
| 2026-04-25 14:07 | 41.22118 | 19.39085 | 37047 ft | 447 kts | 138° |
| 2026-04-25 14:08 | 41.17286 | 19.44260 | 37050 ft | 446 kts | 138° |
| 2026-04-25 14:08 | 41.12454 | 19.49439 | 37045 ft | 446 kts | 138° |
| 2026-04-25 14:09 | 41.07620 | 19.54602 | 37048 ft | 446 kts | 138° |
| 2026-04-25 14:09 | 41.02779 | 19.59756 | 37043 ft | 446 kts | 138° |
| 2026-04-25 14:10 | 40.97944 | 19.64899 | 37039 ft | 446 kts | 138° |
| 2026-04-25 14:10 | 40.93102 | 19.70034 | 37042 ft | 446 kts | 138° |
| 2026-04-25 14:11 | 40.88265 | 19.75156 | 37040 ft | 446 kts | 138° |
| 2026-04-25 14:11 | 40.83417 | 19.80271 | 37038 ft | 446 kts | 138° |
| 2026-04-25 14:12 | 40.78567 | 19.85373 | 37033 ft | 445 kts | 138° |
| 2026-04-25 14:12 | 40.73725 | 19.90467 | 36874 ft | 445 kts | 138° |
| 2026-04-25 14:12 | 40.71311 | 19.93002 | 36610 ft | 444 kts | 138° |
| 2026-04-25 14:13 | 40.68894 | 19.95541 | 36353 ft | 444 kts | 138° |
| 2026-04-25 14:13 | 40.66472 | 19.98088 | 36097 ft | 445 kts | 138° |
| 2026-04-25 14:13 | 40.64058 | 20.00629 | 35841 ft | 445 kts | 138° |
| 2026-04-25 14:13 | 40.61635 | 20.03170 | 35445 ft | 446 kts | 138° |
| 2026-04-25 14:14 | 40.59201 | 20.05721 | 34610 ft | 450 kts | 138° |
| 2026-04-25 14:14 | 40.56739 | 20.08297 | 33725 ft | 454 kts | 138° |
| 2026-04-25 14:14 | 40.54261 | 20.10887 | 32777 ft | 457 kts | 138° |
| 2026-04-25 14:14 | 40.51763 | 20.13493 | 31815 ft | 460 kts | 138° |
| 2026-04-25 14:15 | 40.49254 | 20.16107 | 30909 ft | 462 kts | 138° |
| 2026-04-25 14:15 | 40.48432 | 20.16962 | 30609 ft | 462 kts | 138° |
| 2026-04-25 14:15 | 40.44173 | 20.21379 | 28978 ft | 464 kts | 139° |
| 2026-04-25 14:15 | 40.41668 | 20.23965 | 28448 ft | 455 kts | 139° |
| 2026-04-25 14:16 | 40.39194 | 20.26521 | 27789 ft | 450 kts | 139° |
| 2026-04-25 14:16 | 40.36749 | 20.29051 | 27139 ft | 445 kts | 139° |
| 2026-04-25 14:16 | 40.34327 | 20.31560 | 26490 ft | 442 kts | 139° |
| 2026-04-25 14:16 | 40.32962 | 20.32973 | 26129 ft | 440 kts | 139° |
| 2026-04-25 14:17 | 40.30686 | 20.35277 | 25529 ft | 436 kts | 140° |
| 2026-04-25 14:17 | 40.28308 | 20.37723 | 24889 ft | 434 kts | 139° |
| 2026-04-25 14:17 | 40.25954 | 20.40176 | 24269 ft | 431 kts | 139° |
| 2026-04-25 14:17 | 40.23619 | 20.42619 | 23642 ft | 429 kts | 139° |
| 2026-04-25 14:18 | 40.21295 | 20.45045 | 22956 ft | 425 kts | 139° |
| 2026-04-25 14:18 | 40.18990 | 20.47436 | 22370 ft | 420 kts | 139° |
| 2026-04-25 14:18 | 40.16714 | 20.49783 | 21797 ft | 416 kts | 139° |
| 2026-04-25 14:18 | 40.15204 | 20.51333 | 21434 ft | 413 kts | 139° |
| 2026-04-25 14:19 | 40.12951 | 20.53636 | 20876 ft | 410 kts | 140° |
| 2026-04-25 14:19 | 40.10712 | 20.55919 | 20344 ft | 407 kts | 139° |
| 2026-04-25 14:19 | 40.08754 | 20.57874 | 19885 ft | 406 kts | 143° |
| 2026-04-25 14:19 | 40.06318 | 20.59726 | 19372 ft | 407 kts | 152° |
| 2026-04-25 14:20 | 40.03673 | 20.61064 | 18837 ft | 407 kts | 159° |
| 2026-04-25 14:20 | 40.01900 | 20.61852 | 18472 ft | 407 kts | 159° |
| 2026-04-25 14:20 | 39.98317 | 20.63442 | 17673 ft | 406 kts | 159° |
| 2026-04-25 14:20 | 39.95644 | 20.64625 | 17092 ft | 404 kts | 159° |
| 2026-04-25 14:21 | 39.92996 | 20.65795 | 16509 ft | 401 kts | 159° |
| 2026-04-25 14:21 | 39.90364 | 20.66957 | 15914 ft | 399 kts | 159° |
| 2026-04-25 14:21 | 39.87741 | 20.68117 | 15314 ft | 397 kts | 159° |
| 2026-04-25 14:21 | 39.85130 | 20.69272 | 14701 ft | 395 kts | 159° |
| 2026-04-25 14:22 | 39.82541 | 20.70419 | 14104 ft | 393 kts | 159° |
| 2026-04-25 14:22 | 39.79950 | 20.71567 | 13438 ft | 392 kts | 159° |
| 2026-04-25 14:22 | 39.77387 | 20.72700 | 12826 ft | 388 kts | 159° |
| 2026-04-25 14:22 | 39.74846 | 20.73821 | 12211 ft | 383 kts | 160° |
| 2026-04-25 14:23 | 39.72338 | 20.74927 | 11611 ft | 379 kts | 160° |
| 2026-04-25 14:23 | 39.69846 | 20.76024 | 11005 ft | 376 kts | 160° |
| 2026-04-25 14:23 | 39.67387 | 20.77106 | 10581 ft | 368 kts | 160° |
| 2026-04-25 14:23 | 39.65023 | 20.78140 | 10502 ft | 350 kts | 160° |
| 2026-04-25 14:24 | 39.62767 | 20.79128 | 10384 ft | 335 kts | 160° |
| 2026-04-25 14:24 | 39.60598 | 20.80080 | 10241 ft | 323 kts | 160° |
| 2026-04-25 14:24 | 39.58501 | 20.81000 | 10097 ft | 314 kts | 160° |
| 2026-04-25 14:24 | 39.56460 | 20.81896 | 9896 ft | 306 kts | 160° |
| 2026-04-25 14:25 | 39.54404 | 20.82798 | 9074 ft | 319 kts | 160° |
| 2026-04-25 14:25 | 39.52257 | 20.83739 | 8217 ft | 333 kts | 160° |
| 2026-04-25 14:25 | 39.50072 | 20.84697 | 7884 ft | 327 kts | 160° |
| 2026-04-25 14:25 | 39.48708 | 20.85436 | 7769 ft | 318 kts | 148° |
| 2026-04-25 14:26 | 39.46916 | 20.88214 | 7586 ft | 297 kts | 106° |
| 2026-04-25 14:26 | 39.46760 | 20.90824 | 7070 ft | 296 kts | 77° |
| 2026-04-25 14:26 | 39.47684 | 20.93147 | 6472 ft | 291 kts | 45° |
| 2026-04-25 14:26 | 39.49390 | 20.94407 | 5989 ft | 281 kts | 10° |
| 2026-04-25 14:27 | 39.51251 | 20.94226 | 5744 ft | 264 kts | 342° |
| 2026-04-25 14:27 | 39.52962 | 20.93516 | 5438 ft | 254 kts | 344° |
| 2026-04-25 14:27 | 39.54653 | 20.92993 | 5106 ft | 245 kts | 355° |
| 2026-04-25 14:27 | 39.56323 | 20.92867 | 4780 ft | 236 kts | 358° |
| 2026-04-25 14:28 | 39.57935 | 20.92811 | 4455 ft | 227 kts | 359° |
| 2026-04-25 14:28 | 39.59415 | 20.92469 | 4363 ft | 218 kts | 337° |
| 2026-04-25 14:28 | 39.60686 | 20.91426 | 4384 ft | 211 kts | 322° |
| 2026-04-25 14:28 | 39.61768 | 20.90322 | 4410 ft | 184 kts | 322° |
| 2026-04-25 14:29 | 39.62731 | 20.89340 | 4383 ft | 170 kts | 322° |
| 2026-04-25 14:29 | 39.63636 | 20.88411 | 4362 ft | 157 kts | 322° |
| 2026-04-25 14:29 | 39.64494 | 20.87533 | 3820 ft | 165 kts | 322° |
| 2026-04-25 14:29 | 39.65484 | 20.86553 | 2699 ft | 187 kts | 324° |
| 2026-04-25 14:30 | 39.66512 | 20.85555 | 2213 ft | 172 kts | 323° |
| 2026-04-25 14:30 | 39.68177 | 20.83772 | 1700 ft | 142 kts | 322° |
| 2026-04-25 14:30 | 39.68949 | 20.82992 | 1609 ft | 140 kts | 324° |
| 2026-04-25 14:31 | 39.69653 | 20.82281 | 1574 ft | 116 kts | 322° |
| 2026-04-25 14:31 | 39.70083 | 20.81839 | 1565 ft | 32 kts | 322° |
| 2026-04-25 14:31 | 39.70255 | 20.81668 | 1564 ft | 25 kts | 323° |
| 2026-04-25 14:31 | 39.70368 | 20.81555 | 1564 ft | 21 kts | 323° |
| 2026-04-25 14:32 | 39.70405 | 20.81527 | 1564 ft | 0 kts | 285° |
| 2026-04-25 14:32 | 39.70403 | 20.81523 | 1564 ft | 1 kts | 261° |
| 2026-04-25 14:32 | 39.70399 | 20.81520 | 1564 ft | 0 kts | 219° |
| 2026-04-25 14:32 | 39.70395 | 20.81524 | 1564 ft | 3 kts | 170° |
| 2026-04-25 14:33 | 39.70335 | 20.81575 | 1564 ft | 13 kts | 142° |
| 2026-04-25 14:33 | 39.70259 | 20.81654 | 1564 ft | 15 kts | 141° |
| 2026-04-25 14:33 | 39.70174 | 20.81743 | 1564 ft | 17 kts | 142° |
| 2026-04-25 14:33 | 39.70077 | 20.81839 | 1566 ft | 18 kts | 143° |
| 2026-04-25 14:34 | 39.69970 | 20.81937 | 1567 ft | 20 kts | 146° |
| 2026-04-25 14:34 | 39.69892 | 20.81943 | 1567 ft | 9 kts | 253° |
| 2026-04-25 14:34 | 39.69840 | 20.81876 | 1565 ft | 12 kts | 203° |
| 2026-04-25 14:34 | 39.69764 | 20.81910 | 1565 ft | 13 kts | 152° |
| 2026-04-25 14:35 | 39.69686 | 20.81979 | 1565 ft | 15 kts | 144° |
| 2026-04-25 14:35 | 39.69601 | 20.82070 | 1565 ft | 17 kts | 141° |
| 2026-04-25 14:35 | 39.69501 | 20.82166 | 1565 ft | 19 kts | 140° |
| 2026-04-25 14:35 | 39.69445 | 20.82295 | 1565 ft | 9 kts | 107° |
| 2026-04-25 14:36 | 39.69399 | 20.82366 | 1565 ft | 11 kts | 140° |
| 2026-04-25 14:36 | 39.69343 | 20.82364 | 1565 ft | 3 kts | 223° |
| 2026-04-25 14:36 | 39.69325 | 20.82337 | 1565 ft | 0 kts | 231° |